BOX462 LSZH-LSZB
Flight info
| Callsign | BOX462 |
|---|---|
| Flight time | 0h 25m |
| Altitude | 9000 |
| Route | VEBIT T544 WIL Z601 ROTOS |
| Aircraft | B77L/H-SDE1E2E3FGHIJ2J3J4J5M1RWXY/LB1D1 |
Departure
| Time | 2026-05-08 16:39 |
|---|---|
| Airport | Zürich Airport (LSZH) |
Arrival
| Time | 2026-05-08 17:04 |
|---|---|
| Airport | Bern Airport (LSZB) |
| Time | Latitude | Longitude | Altitude | Speed | Heading |
|---|---|---|---|---|---|
| 2026-05-08 16:14 | 47.44641 | 8.56483 | 1402 ft | 0 kts | 335° |
| 2026-05-08 16:23 | 47.44640 | 8.56483 | 1401 ft | 1 kts | 335° |
| 2026-05-08 16:23 | 47.44622 | 8.56496 | 1411 ft | 2 kts | 334° |
| 2026-05-08 16:23 | 47.44599 | 8.56513 | 1411 ft | 4 kts | 330° |
| 2026-05-08 16:23 | 47.44577 | 8.56534 | 1411 ft | 4 kts | 324° |
| 2026-05-08 16:24 | 47.44556 | 8.56558 | 1411 ft | 4 kts | 317° |
| 2026-05-08 16:24 | 47.44542 | 8.56579 | 1411 ft | 0 kts | 309° |
| 2026-05-08 16:29 | 47.44542 | 8.56578 | 1411 ft | 1 kts | 309° |
| 2026-05-08 16:29 | 47.44557 | 8.56543 | 1411 ft | 8 kts | 292° |
| 2026-05-08 16:29 | 47.44548 | 8.56440 | 1406 ft | 10 kts | 246° |
| 2026-05-08 16:29 | 47.44507 | 8.56301 | 1409 ft | 15 kts | 256° |
| 2026-05-08 16:30 | 47.44560 | 8.56188 | 1409 ft | 16 kts | 335° |
| 2026-05-08 16:30 | 47.44689 | 8.56109 | 1409 ft | 24 kts | 333° |
| 2026-05-08 16:30 | 47.44832 | 8.56010 | 1407 ft | 25 kts | 336° |
| 2026-05-08 16:30 | 47.44936 | 8.55916 | 1410 ft | 16 kts | 295° |
| 2026-05-08 16:31 | 47.44955 | 8.55758 | 1408 ft | 16 kts | 275° |
| 2026-05-08 16:31 | 47.45014 | 8.55638 | 1410 ft | 16 kts | 333° |
| 2026-05-08 16:31 | 47.45113 | 8.55567 | 1411 ft | 16 kts | 334° |
| 2026-05-08 16:31 | 47.45212 | 8.55499 | 1410 ft | 16 kts | 335° |
| 2026-05-08 16:32 | 47.45313 | 8.55431 | 1410 ft | 16 kts | 335° |
| 2026-05-08 16:32 | 47.45415 | 8.55360 | 1410 ft | 16 kts | 335° |
| 2026-05-08 16:32 | 47.45516 | 8.55290 | 1409 ft | 16 kts | 334° |
| 2026-05-08 16:32 | 47.45622 | 8.55213 | 1410 ft | 17 kts | 333° |
| 2026-05-08 16:33 | 47.45677 | 8.55289 | 1409 ft | 14 kts | 90° |
| 2026-05-08 16:33 | 47.45670 | 8.55434 | 1405 ft | 14 kts | 97° |
| 2026-05-08 16:33 | 47.45660 | 8.55579 | 1408 ft | 14 kts | 94° |
| 2026-05-08 16:33 | 47.45656 | 8.55669 | 1402 ft | 5 kts | 94° |
| 2026-05-08 16:34 | 47.45654 | 8.55701 | 1402 ft | 1 kts | 96° |
| 2026-05-08 16:34 | 47.45653 | 8.55715 | 1402 ft | 1 kts | 96° |
| 2026-05-08 16:34 | 47.45652 | 8.55731 | 1405 ft | 3 kts | 96° |
| 2026-05-08 16:34 | 47.45648 | 8.55789 | 1409 ft | 9 kts | 96° |
| 2026-05-08 16:35 | 47.45637 | 8.55904 | 1404 ft | 14 kts | 98° |
| 2026-05-08 16:35 | 47.45620 | 8.56075 | 1407 ft | 19 kts | 97° |
| 2026-05-08 16:35 | 47.45610 | 8.56283 | 1406 ft | 21 kts | 95° |
| 2026-05-08 16:35 | 47.45595 | 8.56500 | 1409 ft | 21 kts | 97° |
| 2026-05-08 16:36 | 47.45578 | 8.56719 | 1410 ft | 21 kts | 96° |
| 2026-05-08 16:36 | 47.45566 | 8.56917 | 1404 ft | 17 kts | 92° |
| 2026-05-08 16:36 | 47.45567 | 8.56959 | 1404 ft | 0 kts | 82° |
| 2026-05-08 16:37 | 47.45567 | 8.56960 | 1404 ft | 1 kts | 81° |
| 2026-05-08 16:37 | 47.45576 | 8.56982 | 1414 ft | 6 kts | 51° |
| 2026-05-08 16:37 | 47.45652 | 8.57000 | 1418 ft | 16 kts | 312° |
| 2026-05-08 16:38 | 47.45666 | 8.56929 | 1411 ft | 0 kts | 276° |
| 2026-05-08 16:38 | 47.45669 | 8.56884 | 1410 ft | 16 kts | 275° |
| 2026-05-08 16:38 | 47.45716 | 8.56219 | 1412 ft | 116 kts | 276° |
| 2026-05-08 16:38 | 47.45845 | 8.54550 | 1430 ft | 205 kts | 276° |
| 2026-05-08 16:39 | 47.46002 | 8.52410 | 2250 ft | 217 kts | 279° |
| 2026-05-08 16:39 | 47.46312 | 8.50188 | 3335 ft | 226 kts | 284° |
| 2026-05-08 16:39 | 47.46494 | 8.47780 | 3785 ft | 247 kts | 261° |
| 2026-05-08 16:39 | 47.45691 | 8.45519 | 4425 ft | 258 kts | 223° |
| 2026-05-08 16:40 | 47.44207 | 8.43950 | 5013 ft | 268 kts | 216° |
| 2026-05-08 16:40 | 47.42792 | 8.42084 | 5759 ft | 275 kts | 228° |
| 2026-05-08 16:40 | 47.41571 | 8.39932 | 6573 ft | 274 kts | 232° |
| 2026-05-08 16:40 | 47.40436 | 8.37670 | 6993 ft | 276 kts | 234° |
| 2026-05-08 16:41 | 47.39303 | 8.35321 | 7010 ft | 283 kts | 235° |
| 2026-05-08 16:41 | 47.38253 | 8.32875 | 7015 ft | 282 kts | 242° |
| 2026-05-08 16:41 | 47.37369 | 8.30329 | 7013 ft | 276 kts | 243° |
| 2026-05-08 16:42 | 47.35662 | 8.25382 | 7018 ft | 273 kts | 243° |
| 2026-05-08 16:42 | 47.34790 | 8.22885 | 7016 ft | 275 kts | 242° |
| 2026-05-08 16:42 | 47.33905 | 8.20379 | 7018 ft | 276 kts | 242° |
| 2026-05-08 16:42 | 47.33013 | 8.17867 | 7015 ft | 278 kts | 242° |
| 2026-05-08 16:43 | 47.32114 | 8.15344 | 7019 ft | 278 kts | 242° |
| 2026-05-08 16:43 | 47.31244 | 8.12801 | 7000 ft | 278 kts | 245° |
| 2026-05-08 16:43 | 47.30465 | 8.10239 | 7014 ft | 277 kts | 246° |
| 2026-05-08 16:43 | 47.29694 | 8.07641 | 7018 ft | 276 kts | 246° |
| 2026-05-08 16:44 | 47.28922 | 8.05050 | 7011 ft | 276 kts | 246° |
| 2026-05-08 16:44 | 47.28149 | 8.02469 | 6996 ft | 275 kts | 245° |
| 2026-05-08 16:44 | 47.27374 | 7.99902 | 7014 ft | 274 kts | 245° |
| 2026-05-08 16:44 | 47.26602 | 7.97347 | 6997 ft | 273 kts | 246° |
| 2026-05-08 16:45 | 47.25827 | 7.94798 | 7012 ft | 272 kts | 245° |
| 2026-05-08 16:45 | 47.25052 | 7.92252 | 6990 ft | 273 kts | 245° |
| 2026-05-08 16:45 | 47.24273 | 7.89701 | 7013 ft | 273 kts | 245° |
| 2026-05-08 16:45 | 47.23494 | 7.87151 | 7012 ft | 274 kts | 245° |
| 2026-05-08 16:46 | 47.22711 | 7.84594 | 7012 ft | 275 kts | 245° |
| 2026-05-08 16:46 | 47.21926 | 7.82027 | 7010 ft | 275 kts | 245° |
| 2026-05-08 16:46 | 47.21149 | 7.79495 | 7009 ft | 276 kts | 245° |
| 2026-05-08 16:46 | 47.20360 | 7.76926 | 7001 ft | 276 kts | 245° |
| 2026-05-08 16:47 | 47.19568 | 7.74350 | 7004 ft | 276 kts | 245° |
| 2026-05-08 16:47 | 47.18757 | 7.71794 | 7003 ft | 276 kts | 242° |
| 2026-05-08 16:47 | 47.17801 | 7.69349 | 7005 ft | 276 kts | 238° |
| 2026-05-08 16:47 | 47.16801 | 7.66947 | 6983 ft | 275 kts | 238° |
| 2026-05-08 16:48 | 47.15809 | 7.64543 | 7006 ft | 275 kts | 238° |
| 2026-05-08 16:48 | 47.14829 | 7.62141 | 7004 ft | 275 kts | 239° |
| 2026-05-08 16:48 | 47.13850 | 7.59727 | 7003 ft | 274 kts | 239° |
| 2026-05-08 16:48 | 47.12889 | 7.57352 | 7005 ft | 275 kts | 239° |
| 2026-05-08 16:49 | 47.12135 | 7.54835 | 7004 ft | 271 kts | 255° |
| 2026-05-08 16:49 | 47.11723 | 7.52128 | 7005 ft | 273 kts | 258° |
| 2026-05-08 16:49 | 47.11343 | 7.49391 | 7000 ft | 274 kts | 258° |
| 2026-05-08 16:49 | 47.10937 | 7.46648 | 7008 ft | 276 kts | 257° |
| 2026-05-08 16:50 | 47.10513 | 7.43896 | 7010 ft | 277 kts | 257° |
| 2026-05-08 16:50 | 47.10087 | 7.41158 | 7003 ft | 270 kts | 256° |
| 2026-05-08 16:50 | 47.09661 | 7.38526 | 6780 ft | 261 kts | 252° |
| 2026-05-08 16:50 | 47.08793 | 7.36276 | 6277 ft | 260 kts | 220° |
| 2026-05-08 16:51 | 47.07338 | 7.34927 | 6094 ft | 236 kts | 209° |
| 2026-05-08 16:51 | 47.05920 | 7.33897 | 5815 ft | 220 kts | 191° |
| 2026-05-08 16:51 | 47.04491 | 7.34075 | 5646 ft | 202 kts | 153° |
| 2026-05-08 16:51 | 47.03343 | 7.35158 | 5432 ft | 191 kts | 144° |
| 2026-05-08 16:52 | 47.02327 | 7.36304 | 5179 ft | 176 kts | 141° |
| 2026-05-08 16:52 | 47.01423 | 7.37403 | 4881 ft | 163 kts | 140° |
| 2026-05-08 16:52 | 47.00564 | 7.38461 | 4620 ft | 162 kts | 139° |
| 2026-05-08 16:52 | 46.99710 | 7.39514 | 4333 ft | 162 kts | 138° |
| 2026-05-08 16:53 | 46.98019 | 7.41595 | 3763 ft | 155 kts | 139° |
| 2026-05-08 16:53 | 46.97191 | 7.42615 | 3507 ft | 157 kts | 139° |
| 2026-05-08 16:53 | 46.96350 | 7.43648 | 3230 ft | 159 kts | 139° |
| 2026-05-08 16:54 | 46.95499 | 7.44692 | 2933 ft | 160 kts | 139° |
| 2026-05-08 16:54 | 46.94648 | 7.45745 | 2627 ft | 159 kts | 139° |
| 2026-05-08 16:54 | 46.93800 | 7.46755 | 2270 ft | 151 kts | 139° |
| 2026-05-08 16:54 | 46.93015 | 7.47707 | 2002 ft | 147 kts | 136° |
| 2026-05-08 16:55 | 46.92256 | 7.48697 | 1805 ft | 145 kts | 137° |
| 2026-05-08 16:55 | 46.91520 | 7.49614 | 1711 ft | 131 kts | 149° |
| 2026-05-08 16:55 | 46.90717 | 7.50534 | 2088 ft | 153 kts | 138° |
| 2026-05-08 16:55 | 46.89904 | 7.51578 | 2495 ft | 158 kts | 139° |
| 2026-05-08 16:56 | 46.89045 | 7.52629 | 2615 ft | 167 kts | 138° |
| 2026-05-08 16:56 | 46.88207 | 7.53932 | 3374 ft | 189 kts | 118° |
| 2026-05-08 16:56 | 46.88013 | 7.55849 | 4259 ft | 202 kts | 71° |
| 2026-05-08 16:56 | 46.88885 | 7.57440 | 5021 ft | 206 kts | 29° |
| 2026-05-08 16:57 | 46.90232 | 7.57885 | 5939 ft | 212 kts | 359° |
| 2026-05-08 16:57 | 46.91724 | 7.57715 | 6273 ft | 217 kts | 351° |
| 2026-05-08 16:57 | 46.93200 | 7.57287 | 6381 ft | 221 kts | 346° |
| 2026-05-08 16:57 | 46.94702 | 7.56627 | 6187 ft | 229 kts | 340° |
| 2026-05-08 16:58 | 46.96200 | 7.55748 | 6034 ft | 232 kts | 335° |
| 2026-05-08 16:58 | 46.97656 | 7.54716 | 5878 ft | 234 kts | 333° |
| 2026-05-08 16:58 | 46.99104 | 7.53578 | 5489 ft | 238 kts | 329° |
| 2026-05-08 16:58 | 47.00483 | 7.52236 | 5117 ft | 238 kts | 325° |
| 2026-05-08 16:59 | 47.01807 | 7.50806 | 4773 ft | 234 kts | 319° |
| 2026-05-08 16:59 | 47.02801 | 7.48962 | 4307 ft | 235 kts | 300° |
| 2026-05-08 16:59 | 47.03484 | 7.46841 | 4099 ft | 223 kts | 290° |
| 2026-05-08 16:59 | 47.03739 | 7.44658 | 4062 ft | 220 kts | 261° |
| 2026-05-08 17:00 | 47.03141 | 7.42596 | 4083 ft | 226 kts | 226° |
| 2026-05-08 17:00 | 47.01879 | 7.41326 | 4057 ft | 219 kts | 198° |
| 2026-05-08 17:00 | 47.00422 | 7.40693 | 4073 ft | 217 kts | 188° |
| 2026-05-08 17:00 | 46.99021 | 7.40806 | 4060 ft | 187 kts | 153° |
| 2026-05-08 17:01 | 46.98060 | 7.41765 | 4073 ft | 158 kts | 143° |
| 2026-05-08 17:01 | 46.97149 | 7.42633 | 4096 ft | 158 kts | 142° |
| 2026-05-08 17:01 | 46.96308 | 7.43685 | 4101 ft | 159 kts | 137° |
| 2026-05-08 17:01 | 46.95480 | 7.44747 | 4064 ft | 157 kts | 130° |
| 2026-05-08 17:02 | 46.95222 | 7.46257 | 3624 ft | 162 kts | 63° |
| 2026-05-08 17:02 | 46.96093 | 7.47021 | 3130 ft | 147 kts | 347° |
| 2026-05-08 17:02 | 46.96981 | 7.46271 | 3006 ft | 158 kts | 296° |
| 2026-05-08 17:02 | 46.96845 | 7.44753 | 2526 ft | 164 kts | 215° |
| 2026-05-08 17:03 | 46.95818 | 7.44557 | 2483 ft | 157 kts | 155° |
| 2026-05-08 17:03 | 46.94901 | 7.45383 | 2516 ft | 160 kts | 140° |
| 2026-05-08 17:03 | 46.94055 | 7.46437 | 2301 ft | 155 kts | 136° |
| 2026-05-08 17:03 | 46.93265 | 7.47436 | 2042 ft | 144 kts | 138° |
| 2026-05-08 17:04 | 46.92514 | 7.48379 | 1803 ft | 136 kts | 137° |
| 2026-05-08 17:04 | 46.91841 | 7.49214 | 1700 ft | 124 kts | 140° |
| 2026-05-08 17:04 | 46.91670 | 7.49822 | 1691 ft | 1 kts | 61° |
| 2026-05-08 17:04 | 46.91670 | 7.49821 | 1691 ft | 2 kts | 61° |
| 2026-05-08 17:05 | 46.91642 | 7.49743 | 1692 ft | 14 kts | 61° |
| 2026-05-08 17:05 | 46.91581 | 7.49575 | 1689 ft | 23 kts | 60° |
| 2026-05-08 17:05 | 46.91559 | 7.49545 | 1689 ft | 15 kts | 103° |
| 2026-05-08 17:05 | 46.91525 | 7.49654 | 1690 ft | 0 kts | 81° |
| 2026-05-08 17:06 | 46.91523 | 7.49699 | 1691 ft | 9 kts | 108° |
| 2026-05-08 17:06 | 46.91494 | 7.49767 | 1688 ft | 0 kts | 134° |
| 2026-05-08 17:07 | 46.91480 | 7.49788 | 1690 ft | 4 kts | 134° |
| 2026-05-08 17:07 | 46.91478 | 7.49792 | 1690 ft | 0 kts | 134° |
| 2026-05-08 17:08 | 46.91462 | 7.49814 | 1690 ft | 11 kts | 137° |
| 2026-05-08 17:08 | 46.91328 | 7.49967 | 1694 ft | 36 kts | 140° |
| 2026-05-08 17:08 | 46.91089 | 7.50258 | 1687 ft | 49 kts | 139° |
| 2026-05-08 17:09 | 46.90927 | 7.50390 | 1683 ft | 24 kts | 191° |
| 2026-05-08 17:09 | 46.90776 | 7.50471 | 1683 ft | 24 kts | 145° |
| 2026-05-08 17:09 | 46.90736 | 7.50559 | 1681 ft | 4 kts | 34° |
| 2026-05-08 17:09 | 46.90764 | 7.50527 | 1677 ft | 0 kts | 313° |
| 2026-05-08 17:10 | 46.91009 | 7.50216 | 1685 ft | 92 kts | 317° |
| 2026-05-08 17:10 | 46.91639 | 7.49432 | 1694 ft | 152 kts | 330° |
| 2026-05-08 17:10 | 46.92480 | 7.48384 | 1811 ft | 166 kts | 310° |
| 2026-05-08 17:10 | 46.93170 | 7.47039 | 2399 ft | 169 kts | 288° |
| 2026-05-08 17:11 | 46.93138 | 7.45357 | 2008 ft | 172 kts | 256° |
| 2026-05-08 17:11 | 46.92868 | 7.43700 | 2161 ft | 171 kts | 256° |
| 2026-05-08 17:11 | 46.92923 | 7.41863 | 2741 ft | 205 kts | 303° |
| 2026-05-08 17:11 | 46.94126 | 7.40706 | 2763 ft | 220 kts | 14° |
| 2026-05-08 17:12 | 46.95285 | 7.41698 | 2931 ft | 209 kts | 75° |
| 2026-05-08 17:12 | 46.95212 | 7.43892 | 2884 ft | 236 kts | 105° |
| 2026-05-08 17:12 | 46.94310 | 7.45915 | 2320 ft | 237 kts | 135° |
| 2026-05-08 17:12 | 46.93142 | 7.47524 | 2046 ft | 222 kts | 131° |
| 2026-05-08 17:13 | 46.92052 | 7.48922 | 1729 ft | 194 kts | 139° |
| 2026-05-08 17:13 | 46.91120 | 7.50093 | 1692 ft | 158 kts | 139° |
| 2026-05-08 17:13 | 46.90450 | 7.50616 | 1684 ft | 2 kts | 42° |